sensor_id;sensor_type;location;lat;lon;timestamp;P1;durP1;ratioP1;P2;durP2;ratioP2
73672;SDS011;61972;19.480;-99.240;2022-11-20T00:01:33;7.85;;;4.00;;
73672;SDS011;61972;19.480;-99.240;2022-11-20T00:04:12;6.80;;;4.60;;
73672;SDS011;61972;19.480;-99.240;2022-11-20T00:06:38;9.00;;;4.70;;
73672;SDS011;61972;19.480;-99.240;2022-11-20T00:09:04;7.03;;;5.05;;
73672;SDS011;61972;19.480;-99.240;2022-11-20T00:11:31;9.85;;;5.72;;
73672;SDS011;61972;19.480;-99.240;2022-11-20T00:13:58;10.23;;;6.30;;
73672;SDS011;61972;19.480;-99.240;2022-11-20T00:16:26;8.52;;;6.22;;
73672;SDS011;61972;19.480;-99.240;2022-11-20T00:18:54;11.00;;;6.03;;
73672;SDS011;61972;19.480;-99.240;2022-11-20T00:21:21;9.57;;;6.40;;
73672;SDS011;61972;19.480;-99.240;2022-11-20T00:23:49;9.30;;;5.93;;
73672;SDS011;61972;19.480;-99.240;2022-11-20T00:26:16;9.02;;;5.68;;
73672;SDS011;61972;19.480;-99.240;2022-11-20T00:28:48;12.20;;;6.30;;
73672;SDS011;61972;19.480;-99.240;2022-11-20T00:31:16;9.57;;;5.80;;
73672;SDS011;61972;19.480;-99.240;2022-11-20T00:33:42;9.77;;;5.40;;
73672;SDS011;61972;19.480;-99.240;2022-11-20T00:36:13;7.13;;;5.60;;
73672;SDS011;61972;19.480;-99.240;2022-11-20T00:38:44;10.20;;;5.40;;
73672;SDS011;61972;19.480;-99.240;2022-11-20T00:41:12;8.02;;;5.60;;
73672;SDS011;61972;19.480;-99.240;2022-11-20T00:43:40;9.33;;;5.40;;
73672;SDS011;61972;19.480;-99.240;2022-11-20T00:46:08;8.40;;;5.35;;
73672;SDS011;61972;19.480;-99.240;2022-11-20T00:48:44;9.93;;;5.90;;
73672;SDS011;61972;19.480;-99.240;2022-11-20T00:51:11;7.93;;;5.60;;
73672;SDS011;61972;19.480;-99.240;2022-11-20T00:53:39;10.82;;;5.97;;
73672;SDS011;61972;19.480;-99.240;2022-11-20T00:56:06;11.00;;;5.63;;
73672;SDS011;61972;19.480;-99.240;2022-11-20T00:58:38;10.40;;;6.72;;
73672;SDS011;61972;19.480;-99.240;2022-11-20T01:01:06;13.63;;;7.43;;
73672;SDS011;61972;19.480;-99.240;2022-11-20T01:03:35;15.45;;;8.40;;
73672;SDS011;61972;19.480;-99.240;2022-11-20T01:06:05;24.45;;;9.75;;
73672;SDS011;61972;19.480;-99.240;2022-11-20T01:08:35;18.53;;;9.47;;
73672;SDS011;61972;19.480;-99.240;2022-11-20T01:11:12;19.83;;;10.38;;
73672;SDS011;61972;19.480;-99.240;2022-11-20T01:13:43;17.88;;;10.32;;
73672;SDS011;61972;19.480;-99.240;2022-11-20T01:16:15;17.83;;;10.07;;
73672;SDS011;61972;19.480;-99.240;2022-11-20T01:18:45;17.77;;;10.52;;
73672;SDS011;61972;19.480;-99.240;2022-11-20T01:21:13;32.60;;;10.50;;
73672;SDS011;61972;19.480;-99.240;2022-11-20T01:23:47;20.90;;;10.02;;
73672;SDS011;61972;19.480;-99.240;2022-11-20T01:26:38;22.23;;;10.85;;
73672;SDS011;61972;19.480;-99.240;2022-11-20T01:29:04;21.20;;;10.38;;
73672;SDS011;61972;19.480;-99.240;2022-11-20T01:31:36;19.10;;;10.25;;
73672;SDS011;61972;19.480;-99.240;2022-11-20T01:34:03;23.57;;;11.43;;
73672;SDS011;61972;19.480;-99.240;2022-11-20T01:36:35;22.98;;;11.77;;
73672;SDS011;61972;19.480;-99.240;2022-11-20T01:39:03;23.55;;;12.00;;
73672;SDS011;61972;19.480;-99.240;2022-11-20T01:41:32;19.02;;;11.65;;
73672;SDS011;61972;19.480;-99.240;2022-11-20T01:44:20;18.65;;;11.05;;
73672;SDS011;61972;19.480;-99.240;2022-11-20T01:47:07;20.30;;;11.40;;
73672;SDS011;61972;19.480;-99.240;2022-11-20T01:50:18;20.85;;;11.50;;
73672;SDS011;61972;19.480;-99.240;2022-11-20T01:52:40;19.25;;;12.23;;
73672;SDS011;61972;19.480;-99.240;2022-11-20T01:55:13;19.15;;;11.82;;
73672;SDS011;61972;19.480;-99.240;2022-11-20T01:57:44;20.02;;;12.18;;
73672;SDS011;61972;19.480;-99.240;2022-11-20T02:00:14;23.53;;;11.53;;
73672;SDS011;61972;19.480;-99.240;2022-11-20T02:02:43;20.23;;;12.27;;
73672;SDS011;61972;19.480;-99.240;2022-11-20T02:08:28;18.80;;;12.05;;
73672;SDS011;61972;19.480;-99.240;2022-11-20T02:10:58;18.27;;;11.65;;
73672;SDS011;61972;19.480;-99.240;2022-11-20T02:13:24;19.27;;;12.70;;
73672;SDS011;61972;19.480;-99.240;2022-11-20T02:16:10;17.05;;;10.93;;
73672;SDS011;61972;19.480;-99.240;2022-11-20T02:18:39;17.65;;;11.35;;
73672;SDS011;61972;19.480;-99.240;2022-11-20T02:21:13;15.90;;;10.88;;
73672;SDS011;61972;19.480;-99.240;2022-11-20T02:24:02;17.77;;;11.48;;
73672;SDS011;61972;19.480;-99.240;2022-11-20T02:26:31;16.03;;;10.47;;
73672;SDS011;61972;19.480;-99.240;2022-11-20T02:29:00;16.88;;;10.73;;
73672;SDS011;61972;19.480;-99.240;2022-11-20T02:31:28;17.10;;;10.13;;
73672;SDS011;61972;19.480;-99.240;2022-11-20T02:33:55;14.23;;;10.25;;
73672;SDS011;61972;19.480;-99.240;2022-11-20T02:36:22;14.88;;;10.05;;
73672;SDS011;61972;19.480;-99.240;2022-11-20T02:38:51;14.63;;;9.80;;
73672;SDS011;61972;19.480;-99.240;2022-11-20T02:41:17;15.77;;;9.60;;
73672;SDS011;61972;19.480;-99.240;2022-11-20T02:43:44;13.75;;;9.70;;
73672;SDS011;61972;19.480;-99.240;2022-11-20T02:46:10;14.43;;;9.65;;
73672;SDS011;61972;19.480;-99.240;2022-11-20T02:48:38;15.98;;;9.63;;
73672;SDS011;61972;19.480;-99.240;2022-11-20T02:51:04;11.53;;;8.97;;
73672;SDS011;61972;19.480;-99.240;2022-11-20T02:53:30;12.05;;;9.40;;
73672;SDS011;61972;19.480;-99.240;2022-11-20T02:55:57;12.07;;;8.57;;
73672;SDS011;61972;19.480;-99.240;2022-11-20T02:58:26;13.63;;;9.10;;
73672;SDS011;61972;19.480;-99.240;2022-11-20T03:00:52;11.57;;;9.00;;
73672;SDS011;61972;19.480;-99.240;2022-11-20T03:03:18;12.60;;;8.87;;
73672;SDS011;61972;19.480;-99.240;2022-11-20T03:05:44;12.05;;;8.55;;
73672;SDS011;61972;19.480;-99.240;2022-11-20T03:08:10;12.60;;;9.32;;
73672;SDS011;61972;19.480;-99.240;2022-11-20T03:10:36;14.75;;;9.10;;
73672;SDS011;61972;19.480;-99.240;2022-11-20T03:13:02;14.35;;;9.02;;
73672;SDS011;61972;19.480;-99.240;2022-11-20T03:15:28;12.80;;;8.37;;
73672;SDS011;61972;19.480;-99.240;2022-11-20T03:17:55;12.98;;;8.35;;
73672;SDS011;61972;19.480;-99.240;2022-11-20T03:20:21;10.90;;;8.18;;
73672;SDS011;61972;19.480;-99.240;2022-11-20T03:22:47;10.63;;;8.35;;
73672;SDS011;61972;19.480;-99.240;2022-11-20T03:25:16;11.65;;;8.57;;
73672;SDS011;61972;19.480;-99.240;2022-11-20T03:27:42;11.73;;;8.37;;
73672;SDS011;61972;19.480;-99.240;2022-11-20T03:30:09;11.38;;;8.63;;
73672;SDS011;61972;19.480;-99.240;2022-11-20T03:32:40;11.13;;;8.90;;
73672;SDS011;61972;19.480;-99.240;2022-11-20T03:35:07;12.57;;;8.43;;
73672;SDS011;61972;19.480;-99.240;2022-11-20T03:37:33;12.38;;;9.40;;
73672;SDS011;61972;19.480;-99.240;2022-11-20T03:39:59;13.27;;;9.37;;
73672;SDS011;61972;19.480;-99.240;2022-11-20T03:42:25;12.00;;;9.30;;
73672;SDS011;61972;19.480;-99.240;2022-11-20T03:45:10;12.60;;;9.20;;
73672;SDS011;61972;19.480;-99.240;2022-11-20T03:47:36;11.65;;;9.52;;
73672;SDS011;61972;19.480;-99.240;2022-11-20T03:50:09;12.15;;;9.57;;
73672;SDS011;61972;19.480;-99.240;2022-11-20T03:52:37;12.30;;;9.80;;
73672;SDS011;61972;19.480;-99.240;2022-11-20T03:55:04;12.70;;;9.00;;
73672;SDS011;61972;19.480;-99.240;2022-11-20T03:57:33;14.15;;;9.50;;
73672;SDS011;61972;19.480;-99.240;2022-11-20T03:59:59;12.45;;;9.68;;
73672;SDS011;61972;19.480;-99.240;2022-11-20T04:02:25;16.23;;;9.60;;
73672;SDS011;61972;19.480;-99.240;2022-11-20T04:04:51;12.53;;;9.40;;
73672;SDS011;61972;19.480;-99.240;2022-11-20T04:07:18;12.30;;;9.15;;
73672;SDS011;61972;19.480;-99.240;2022-11-20T04:09:44;13.70;;;9.13;;
73672;SDS011;61972;19.480;-99.240;2022-11-20T04:12:10;13.00;;;9.05;;
73672;SDS011;61972;19.480;-99.240;2022-11-20T04:14:36;12.95;;;8.93;;
73672;SDS011;61972;19.480;-99.240;2022-11-20T04:17:03;11.57;;;9.07;;
73672;SDS011;61972;19.480;-99.240;2022-11-20T04:19:29;13.75;;;8.88;;
73672;SDS011;61972;19.480;-99.240;2022-11-20T04:21:58;12.15;;;9.23;;
73672;SDS011;61972;19.480;-99.240;2022-11-20T04:24:24;11.70;;;9.00;;
73672;SDS011;61972;19.480;-99.240;2022-11-20T04:27:14;11.15;;;8.82;;
73672;SDS011;61972;19.480;-99.240;2022-11-20T04:29:40;12.83;;;8.47;;
73672;SDS011;61972;19.480;-99.240;2022-11-20T04:32:06;11.30;;;8.75;;
73672;SDS011;61972;19.480;-99.240;2022-11-20T04:34:32;11.52;;;8.65;;
73672;SDS011;61972;19.480;-99.240;2022-11-20T04:36:59;10.48;;;8.35;;
73672;SDS011;61972;19.480;-99.240;2022-11-20T04:39:25;14.00;;;9.02;;
73672;SDS011;61972;19.480;-99.240;2022-11-20T04:41:51;11.10;;;8.30;;
73672;SDS011;61972;19.480;-99.240;2022-11-20T04:44:37;12.77;;;8.85;;
73672;SDS011;61972;19.480;-99.240;2022-11-20T04:47:03;10.90;;;8.63;;
73672;SDS011;61972;19.480;-99.240;2022-11-20T04:49:39;11.88;;;8.43;;
73672;SDS011;61972;19.480;-99.240;2022-11-20T04:52:05;11.52;;;8.70;;
73672;SDS011;61972;19.480;-99.240;2022-11-20T04:54:31;12.03;;;8.30;;
73672;SDS011;61972;19.480;-99.240;2022-11-20T04:56:57;12.20;;;8.70;;
73672;SDS011;61972;19.480;-99.240;2022-11-20T04:59:23;12.80;;;8.70;;
73672;SDS011;61972;19.480;-99.240;2022-11-20T05:01:50;10.07;;;8.38;;
73672;SDS011;61972;19.480;-99.240;2022-11-20T05:04:16;12.50;;;8.45;;
73672;SDS011;61972;19.480;-99.240;2022-11-20T05:06:49;11.20;;;8.30;;
73672;SDS011;61972;19.480;-99.240;2022-11-20T05:09:18;11.35;;;8.40;;
73672;SDS011;61972;19.480;-99.240;2022-11-20T05:11:44;11.57;;;8.27;;
73672;SDS011;61972;19.480;-99.240;2022-11-20T05:14:10;11.07;;;8.05;;
73672;SDS011;61972;19.480;-99.240;2022-11-20T05:16:36;11.48;;;9.15;;
73672;SDS011;61972;19.480;-99.240;2022-11-20T05:19:02;11.80;;;8.40;;
73672;SDS011;61972;19.480;-99.240;2022-11-20T05:21:29;11.82;;;8.85;;
73672;SDS011;61972;19.480;-99.240;2022-11-20T05:23:57;11.40;;;8.70;;
73672;SDS011;61972;19.480;-99.240;2022-11-20T05:26:23;13.15;;;8.55;;
73672;SDS011;61972;19.480;-99.240;2022-11-20T05:28:50;10.77;;;8.02;;
73672;SDS011;61972;19.480;-99.240;2022-11-20T05:31:20;11.37;;;8.40;;
73672;SDS011;61972;19.480;-99.240;2022-11-20T05:33:48;11.82;;;8.90;;
73672;SDS011;61972;19.480;-99.240;2022-11-20T05:36:20;12.52;;;8.40;;
73672;SDS011;61972;19.480;-99.240;2022-11-20T05:38:46;10.90;;;8.52;;
73672;SDS011;61972;19.480;-99.240;2022-11-20T05:41:13;11.95;;;8.90;;
73672;SDS011;61972;19.480;-99.240;2022-11-20T05:43:44;11.07;;;8.20;;
73672;SDS011;61972;19.480;-99.240;2022-11-20T05:46:14;12.15;;;8.65;;
73672;SDS011;61972;19.480;-99.240;2022-11-20T05:48:43;10.93;;;8.70;;
73672;SDS011;61972;19.480;-99.240;2022-11-20T05:51:11;13.45;;;8.55;;
73672;SDS011;61972;19.480;-99.240;2022-11-20T05:53:38;10.68;;;8.48;;
73672;SDS011;61972;19.480;-99.240;2022-11-20T05:56:13;12.83;;;8.57;;
73672;SDS011;61972;19.480;-99.240;2022-11-20T05:58:42;11.43;;;8.55;;
73672;SDS011;61972;19.480;-99.240;2022-11-20T06:01:14;10.85;;;8.73;;
73672;SDS011;61972;19.480;-99.240;2022-11-20T06:03:45;13.10;;;8.38;;
73672;SDS011;61972;19.480;-99.240;2022-11-20T06:06:13;12.15;;;8.73;;
73672;SDS011;61972;19.480;-99.240;2022-11-20T06:08:40;10.73;;;8.73;;
73672;SDS011;61972;19.480;-99.240;2022-11-20T06:11:27;14.13;;;9.35;;
73672;SDS011;61972;19.480;-99.240;2022-11-20T06:13:53;14.38;;;8.75;;
73672;SDS011;61972;19.480;-99.240;2022-11-20T06:16:22;12.50;;;9.07;;
73672;SDS011;61972;19.480;-99.240;2022-11-20T06:18:51;12.77;;;8.82;;
73672;SDS011;61972;19.480;-99.240;2022-11-20T06:21:18;11.20;;;8.43;;
73672;SDS011;61972;19.480;-99.240;2022-11-20T06:23:48;12.88;;;8.98;;
73672;SDS011;61972;19.480;-99.240;2022-11-20T06:26:16;10.50;;;8.90;;
73672;SDS011;61972;19.480;-99.240;2022-11-20T06:28:47;13.27;;;8.98;;
73672;SDS011;61972;19.480;-99.240;2022-11-20T06:31:13;14.07;;;8.85;;
73672;SDS011;61972;19.480;-99.240;2022-11-20T06:33:41;12.27;;;8.80;;
73672;SDS011;61972;19.480;-99.240;2022-11-20T06:36:16;13.70;;;8.63;;
73672;SDS011;61972;19.480;-99.240;2022-11-20T06:38:44;12.57;;;9.07;;
73672;SDS011;61972;19.480;-99.240;2022-11-20T06:41:11;12.15;;;8.90;;
73672;SDS011;61972;19.480;-99.240;2022-11-20T06:43:39;12.50;;;8.55;;
73672;SDS011;61972;19.480;-99.240;2022-11-20T06:46:05;13.67;;;9.50;;
73672;SDS011;61972;19.480;-99.240;2022-11-20T06:48:32;12.25;;;8.90;;
73672;SDS011;61972;19.480;-99.240;2022-11-20T06:50:58;12.98;;;9.40;;
73672;SDS011;61972;19.480;-99.240;2022-11-20T06:53:24;11.48;;;9.00;;
73672;SDS011;61972;19.480;-99.240;2022-11-20T06:55:51;16.02;;;9.95;;
73672;SDS011;61972;19.480;-99.240;2022-11-20T06:58:17;12.53;;;9.47;;
73672;SDS011;61972;19.480;-99.240;2022-11-20T07:00:46;10.57;;;8.90;;
73672;SDS011;61972;19.480;-99.240;2022-11-20T07:03:12;14.15;;;9.38;;
73672;SDS011;61972;19.480;-99.240;2022-11-20T07:05:38;12.35;;;9.10;;
73672;SDS011;61972;19.480;-99.240;2022-11-20T07:08:07;11.90;;;9.27;;
73672;SDS011;61972;19.480;-99.240;2022-11-20T07:10:34;12.63;;;9.60;;
73672;SDS011;61972;19.480;-99.240;2022-11-20T07:13:01;15.30;;;9.88;;
73672;SDS011;61972;19.480;-99.240;2022-11-20T07:15:30;12.75;;;9.40;;
73672;SDS011;61972;19.480;-99.240;2022-11-20T07:17:58;13.73;;;10.02;;
73672;SDS011;61972;19.480;-99.240;2022-11-20T07:20:25;13.20;;;9.40;;
73672;SDS011;61972;19.480;-99.240;2022-11-20T07:22:54;14.10;;;9.53;;
73672;SDS011;61972;19.480;-99.240;2022-11-20T07:25:21;12.32;;;9.68;;
73672;SDS011;61972;19.480;-99.240;2022-11-20T07:27:48;12.82;;;9.82;;
73672;SDS011;61972;19.480;-99.240;2022-11-20T07:30:14;14.02;;;9.90;;
73672;SDS011;61972;19.480;-99.240;2022-11-20T07:32:41;13.45;;;9.85;;
73672;SDS011;61972;19.480;-99.240;2022-11-20T07:35:07;12.33;;;9.60;;
73672;SDS011;61972;19.480;-99.240;2022-11-20T07:37:34;12.90;;;9.68;;
73672;SDS011;61972;19.480;-99.240;2022-11-20T07:40:00;14.98;;;10.15;;
73672;SDS011;61972;19.480;-99.240;2022-11-20T07:42:26;12.25;;;10.02;;
73672;SDS011;61972;19.480;-99.240;2022-11-20T07:44:52;13.88;;;10.27;;
73672;SDS011;61972;19.480;-99.240;2022-11-20T07:47:18;13.40;;;10.30;;
73672;SDS011;61972;19.480;-99.240;2022-11-20T07:49:44;15.80;;;9.95;;
73672;SDS011;61972;19.480;-99.240;2022-11-20T07:52:10;13.38;;;9.43;;
73672;SDS011;61972;19.480;-99.240;2022-11-20T07:54:36;13.73;;;10.25;;
73672;SDS011;61972;19.480;-99.240;2022-11-20T07:57:06;13.50;;;10.05;;
73672;SDS011;61972;19.480;-99.240;2022-11-20T07:59:32;12.73;;;9.87;;
73672;SDS011;61972;19.480;-99.240;2022-11-20T08:02:00;14.43;;;10.05;;
73672;SDS011;61972;19.480;-99.240;2022-11-20T08:04:29;16.42;;;10.18;;
73672;SDS011;61972;19.480;-99.240;2022-11-20T08:06:55;12.20;;;9.77;;
73672;SDS011;61972;19.480;-99.240;2022-11-20T08:09:24;14.00;;;9.80;;
73672;SDS011;61972;19.480;-99.240;2022-11-20T08:11:50;13.93;;;9.70;;
73672;SDS011;61972;19.480;-99.240;2022-11-20T08:14:37;13.77;;;9.77;;
73672;SDS011;61972;19.480;-99.240;2022-11-20T08:17:03;13.55;;;9.43;;
73672;SDS011;61972;19.480;-99.240;2022-11-20T08:19:30;16.42;;;10.23;;
73672;SDS011;61972;19.480;-99.240;2022-11-20T08:21:56;13.23;;;9.02;;
73672;SDS011;61972;19.480;-99.240;2022-11-20T08:24:22;13.33;;;9.17;;
73672;SDS011;61972;19.480;-99.240;2022-11-20T08:26:48;13.43;;;8.93;;
73672;SDS011;61972;19.480;-99.240;2022-11-20T08:29:14;11.93;;;8.65;;
73672;SDS011;61972;19.480;-99.240;2022-11-20T08:31:41;13.10;;;8.55;;
73672;SDS011;61972;19.480;-99.240;2022-11-20T08:34:10;12.85;;;8.65;;
73672;SDS011;61972;19.480;-99.240;2022-11-20T08:36:36;11.17;;;9.17;;
73672;SDS011;61972;19.480;-99.240;2022-11-20T08:39:02;14.18;;;9.13;;
73672;SDS011;61972;19.480;-99.240;2022-11-20T08:41:29;12.70;;;8.60;;
73672;SDS011;61972;19.480;-99.240;2022-11-20T08:44:02;12.20;;;8.80;;
73672;SDS011;61972;19.480;-99.240;2022-11-20T08:46:32;10.63;;;8.90;;
73672;SDS011;61972;19.480;-99.240;2022-11-20T08:49:02;11.60;;;8.00;;
73672;SDS011;61972;19.480;-99.240;2022-11-20T08:51:32;11.30;;;8.75;;
73672;SDS011;61972;19.480;-99.240;2022-11-20T08:53:59;11.50;;;8.63;;
73672;SDS011;61972;19.480;-99.240;2022-11-20T08:56:25;13.75;;;8.25;;
73672;SDS011;61972;19.480;-99.240;2022-11-20T08:58:51;12.93;;;8.82;;
73672;SDS011;61972;19.480;-99.240;2022-11-20T09:01:18;12.10;;;8.40;;
73672;SDS011;61972;19.480;-99.240;2022-11-20T09:03:45;11.93;;;8.80;;
73672;SDS011;61972;19.480;-99.240;2022-11-20T09:06:11;10.63;;;8.45;;
73672;SDS011;61972;19.480;-99.240;2022-11-20T09:08:38;11.75;;;8.50;;
73672;SDS011;61972;19.480;-99.240;2022-11-20T09:11:05;12.13;;;8.60;;
73672;SDS011;61972;19.480;-99.240;2022-11-20T09:13:31;9.77;;;7.80;;
73672;SDS011;61972;19.480;-99.240;2022-11-20T09:16:06;11.82;;;7.95;;
73672;SDS011;61972;19.480;-99.240;2022-11-20T09:18:34;14.65;;;8.20;;
73672;SDS011;61972;19.480;-99.240;2022-11-20T09:21:08;11.55;;;7.35;;
73672;SDS011;61972;19.480;-99.240;2022-11-20T09:23:36;12.65;;;7.32;;
73672;SDS011;61972;19.480;-99.240;2022-11-20T09:26:04;10.37;;;6.90;;
73672;SDS011;61972;19.480;-99.240;2022-11-20T09:28:32;10.52;;;7.07;;
73672;SDS011;61972;19.480;-99.240;2022-11-20T09:30:58;9.73;;;7.07;;
73672;SDS011;61972;19.480;-99.240;2022-11-20T09:33:25;8.82;;;6.72;;
73672;SDS011;61972;19.480;-99.240;2022-11-20T09:35:51;11.68;;;7.20;;
73672;SDS011;61972;19.480;-99.240;2022-11-20T09:38:17;8.83;;;6.47;;
73672;SDS011;61972;19.480;-99.240;2022-11-20T09:40:45;12.52;;;6.60;;
73672;SDS011;61972;19.480;-99.240;2022-11-20T09:46:22;13.00;;;8.05;;
73672;SDS011;61972;19.480;-99.240;2022-11-20T09:54:33;9.48;;;7.13;;
73672;SDS011;61972;19.480;-99.240;2022-11-20T09:57:05;10.10;;;7.40;;
73672;SDS011;61972;19.480;-99.240;2022-11-20T09:59:42;11.20;;;7.45;;
73672;SDS011;61972;19.480;-99.240;2022-11-20T10:02:58;10.07;;;7.00;;
73672;SDS011;61972;19.480;-99.240;2022-11-20T10:10:31;10.23;;;6.85;;
73672;SDS011;61972;19.480;-99.240;2022-11-20T10:18:27;11.40;;;7.00;;
73672;SDS011;61972;19.480;-99.240;2022-11-20T10:21:08;8.55;;;6.90;;
73672;SDS011;61972;19.480;-99.240;2022-11-20T10:29:32;10.10;;;6.93;;
73672;SDS011;61972;19.480;-99.240;2022-11-20T10:32:02;9.17;;;6.50;;
73672;SDS011;61972;19.480;-99.240;2022-11-20T10:34:35;11.82;;;7.00;;
73672;SDS011;61972;19.480;-99.240;2022-11-20T10:37:23;10.00;;;6.50;;
73672;SDS011;61972;19.480;-99.240;2022-11-20T10:39:53;8.98;;;6.85;;
73672;SDS011;61972;19.480;-99.240;2022-11-20T10:47:56;9.02;;;6.65;;
73672;SDS011;61972;19.480;-99.240;2022-11-20T10:50:40;10.70;;;7.20;;
73672;SDS011;61972;19.480;-99.240;2022-11-20T10:56:07;9.50;;;6.97;;
73672;SDS011;61972;19.480;-99.240;2022-11-20T11:01:16;9.65;;;7.07;;
73672;SDS011;61972;19.480;-99.240;2022-11-20T11:03:46;9.05;;;6.70;;
73672;SDS011;61972;19.480;-99.240;2022-11-20T11:09:11;8.77;;;7.07;;
73672;SDS011;61972;19.480;-99.240;2022-11-20T11:11:41;8.30;;;6.60;;
73672;SDS011;61972;19.480;-99.240;2022-11-20T11:14:09;9.05;;;6.78;;
73672;SDS011;61972;19.480;-99.240;2022-11-20T11:16:40;8.55;;;6.97;;
73672;SDS011;61972;19.480;-99.240;2022-11-20T11:19:18;8.50;;;6.78;;
73672;SDS011;61972;19.480;-99.240;2022-11-20T11:21:51;8.70;;;6.80;;
73672;SDS011;61972;19.480;-99.240;2022-11-20T11:24:25;8.07;;;6.77;;
73672;SDS011;61972;19.480;-99.240;2022-11-20T11:26:57;9.23;;;7.40;;
73672;SDS011;61972;19.480;-99.240;2022-11-20T11:29:29;9.45;;;6.93;;
73672;SDS011;61972;19.480;-99.240;2022-11-20T11:32:04;8.57;;;6.80;;
73672;SDS011;61972;19.480;-99.240;2022-11-20T11:34:32;8.70;;;7.00;;
73672;SDS011;61972;19.480;-99.240;2022-11-20T11:36:58;8.50;;;6.80;;
73672;SDS011;61972;19.480;-99.240;2022-11-20T11:39:26;8.32;;;7.00;;
73672;SDS011;61972;19.480;-99.240;2022-11-20T11:41:54;8.32;;;7.00;;
73672;SDS011;61972;19.480;-99.240;2022-11-20T11:44:21;9.50;;;7.20;;
73672;SDS011;61972;19.480;-99.240;2022-11-20T11:47:11;8.63;;;6.95;;
73672;SDS011;61972;19.480;-99.240;2022-11-20T11:55:14;8.88;;;6.97;;
73672;SDS011;61972;19.480;-99.240;2022-11-20T11:57:49;8.90;;;7.63;;
73672;SDS011;61972;19.480;-99.240;2022-11-20T12:00:23;9.13;;;6.78;;
73672;SDS011;61972;19.480;-99.240;2022-11-20T12:08:31;8.13;;;6.53;;
73672;SDS011;61972;19.480;-99.240;2022-11-20T12:14:16;8.02;;;6.20;;
73672;SDS011;61972;19.480;-99.240;2022-11-20T12:16:44;8.07;;;6.67;;
73672;SDS011;61972;19.480;-99.240;2022-11-20T12:19:12;7.60;;;6.35;;
73672;SDS011;61972;19.480;-99.240;2022-11-20T12:32:49;8.20;;;6.57;;
73672;SDS011;61972;19.480;-99.240;2022-11-20T12:35:32;7.93;;;6.18;;
73672;SDS011;61972;19.480;-99.240;2022-11-20T12:38:08;7.63;;;6.10;;
73672;SDS011;61972;19.480;-99.240;2022-11-20T12:40:58;8.18;;;5.90;;
73672;SDS011;61972;19.480;-99.240;2022-11-20T12:43:37;9.07;;;5.97;;
73672;SDS011;61972;19.480;-99.240;2022-11-20T12:46:48;8.15;;;5.70;;
73672;SDS011;61972;19.480;-99.240;2022-11-20T12:52:19;8.63;;;5.85;;
73672;SDS011;61972;19.480;-99.240;2022-11-20T13:00:21;7.20;;;5.57;;
73672;SDS011;61972;19.480;-99.240;2022-11-20T13:06:18;6.28;;;4.95;;
73672;SDS011;61972;19.480;-99.240;2022-11-20T13:09:02;6.60;;;5.20;;
73672;SDS011;61972;19.480;-99.240;2022-11-20T13:11:41;7.20;;;5.47;;
73672;SDS011;61972;19.480;-99.240;2022-11-20T13:17:40;6.75;;;5.10;;
73672;SDS011;61972;19.480;-99.240;2022-11-20T13:19:54;7.22;;;5.20;;
73672;SDS011;61972;19.480;-99.240;2022-11-20T13:22:24;7.45;;;5.28;;
73672;SDS011;61972;19.480;-99.240;2022-11-20T13:24:51;6.73;;;5.33;;
73672;SDS011;61972;19.480;-99.240;2022-11-20T13:27:19;6.43;;;5.15;;
73672;SDS011;61972;19.480;-99.240;2022-11-20T13:30:02;6.78;;;5.50;;
73672;SDS011;61972;19.480;-99.240;2022-11-20T13:32:47;7.40;;;5.63;;
73672;SDS011;61972;19.480;-99.240;2022-11-20T13:35:33;7.03;;;5.30;;
73672;SDS011;61972;19.480;-99.240;2022-11-20T13:38:07;6.40;;;5.13;;
73672;SDS011;61972;19.480;-99.240;2022-11-20T13:40:38;7.07;;;5.28;;
73672;SDS011;61972;19.480;-99.240;2022-11-20T13:43:21;6.80;;;5.00;;
73672;SDS011;61972;19.480;-99.240;2022-11-20T13:46:01;6.28;;;5.00;;
73672;SDS011;61972;19.480;-99.240;2022-11-20T13:48:32;7.43;;;4.95;;
73672;SDS011;61972;19.480;-99.240;2022-11-20T13:53:58;6.50;;;5.00;;
73672;SDS011;61972;19.480;-99.240;2022-11-20T13:56:47;6.20;;;4.82;;
73672;SDS011;61972;19.480;-99.240;2022-11-20T13:59:31;6.72;;;4.78;;
73672;SDS011;61972;19.480;-99.240;2022-11-20T14:02:18;6.55;;;4.85;;
73672;SDS011;61972;19.480;-99.240;2022-11-20T14:04:48;6.70;;;4.73;;
73672;SDS011;61972;19.480;-99.240;2022-11-20T14:07:16;6.70;;;5.10;;
73672;SDS011;61972;19.480;-99.240;2022-11-20T14:09:49;6.32;;;4.90;;
73672;SDS011;61972;19.480;-99.240;2022-11-20T14:12:23;7.18;;;5.13;;
73672;SDS011;61972;19.480;-99.240;2022-11-20T14:14:54;8.18;;;5.10;;
73672;SDS011;61972;19.480;-99.240;2022-11-20T14:17:22;5.90;;;4.53;;
73672;SDS011;61972;19.480;-99.240;2022-11-20T14:19:55;5.72;;;4.47;;
73672;SDS011;61972;19.480;-99.240;2022-11-20T14:22:25;6.65;;;5.07;;
73672;SDS011;61972;19.480;-99.240;2022-11-20T14:25:04;6.50;;;5.15;;
73672;SDS011;61972;19.480;-99.240;2022-11-20T14:27:41;6.10;;;4.57;;
73672;SDS011;61972;19.480;-99.240;2022-11-20T14:30:23;5.73;;;4.30;;
73672;SDS011;61972;19.480;-99.240;2022-11-20T14:32:51;7.13;;;4.63;;
73672;SDS011;61972;19.480;-99.240;2022-11-20T14:37:49;6.57;;;4.85;;
73672;SDS011;61972;19.480;-99.240;2022-11-20T14:40:29;6.55;;;4.78;;
73672;SDS011;61972;19.480;-99.240;2022-11-20T14:43:24;6.27;;;4.77;;
73672;SDS011;61972;19.480;-99.240;2022-11-20T14:45:57;6.22;;;4.90;;
73672;SDS011;61972;19.480;-99.240;2022-11-20T14:48:28;6.57;;;4.95;;
73672;SDS011;61972;19.480;-99.240;2022-11-20T14:50:58;6.07;;;4.85;;
73672;SDS011;61972;19.480;-99.240;2022-11-20T14:53:24;6.30;;;4.80;;
73672;SDS011;61972;19.480;-99.240;2022-11-20T14:55:58;6.50;;;4.70;;
73672;SDS011;61972;19.480;-99.240;2022-11-20T14:58:29;6.72;;;4.53;;
73672;SDS011;61972;19.480;-99.240;2022-11-20T15:01:01;5.97;;;4.45;;
73672;SDS011;61972;19.480;-99.240;2022-11-20T15:03:56;6.28;;;4.65;;
73672;SDS011;61972;19.480;-99.240;2022-11-20T15:06:25;8.23;;;4.88;;
73672;SDS011;61972;19.480;-99.240;2022-11-20T15:08:52;5.57;;;4.17;;
73672;SDS011;61972;19.480;-99.240;2022-11-20T15:11:19;6.40;;;4.70;;
73672;SDS011;61972;19.480;-99.240;2022-11-20T15:13:51;6.70;;;4.35;;
73672;SDS011;61972;19.480;-99.240;2022-11-20T15:16:18;5.72;;;4.38;;
73672;SDS011;61972;19.480;-99.240;2022-11-20T15:18:45;5.93;;;4.50;;
73672;SDS011;61972;19.480;-99.240;2022-11-20T15:21:14;13.47;;;9.50;;
73672;SDS011;61972;19.480;-99.240;2022-11-20T15:23:42;11.93;;;8.63;;
73672;SDS011;61972;19.480;-99.240;2022-11-20T15:26:08;14.35;;;10.82;;
73672;SDS011;61972;19.480;-99.240;2022-11-20T15:28:37;16.33;;;11.10;;
73672;SDS011;61972;19.480;-99.240;2022-11-20T15:31:06;16.05;;;11.93;;
73672;SDS011;61972;19.480;-99.240;2022-11-20T15:33:34;14.10;;;10.40;;
73672;SDS011;61972;19.480;-99.240;2022-11-20T15:36:01;16.17;;;10.05;;
73672;SDS011;61972;19.480;-99.240;2022-11-20T15:38:27;12.75;;;9.88;;
73672;SDS011;61972;19.480;-99.240;2022-11-20T15:40:53;15.13;;;10.55;;
73672;SDS011;61972;19.480;-99.240;2022-11-20T15:43:19;15.10;;;10.90;;
73672;SDS011;61972;19.480;-99.240;2022-11-20T15:45:53;19.97;;;11.47;;
73672;SDS011;61972;19.480;-99.240;2022-11-20T15:51:06;98.90;;;29.17;;
73672;SDS011;61972;19.480;-99.240;2022-11-20T15:53:42;103.22;;;29.23;;
73672;SDS011;61972;19.480;-99.240;2022-11-20T15:56:12;88.70;;;26.52;;
73672;SDS011;61972;19.480;-99.240;2022-11-20T15:58:39;75.47;;;25.00;;
73672;SDS011;61972;19.480;-99.240;2022-11-20T16:01:05;78.65;;;23.83;;